Time;durP1;ratioP1;P1;durP2;ratioP2;P2;SDS_P1;SDS_P2;PMS_P1;PMS_P2;Temp;Humidity;BMP_temperature;BMP_pressure;BME280_temperature;BME280_humidity;BME280_pressure;Samples;Min_cycle;Max_cycle;Signal;HPM_P1;HPM_P2
2023/05/07 00:02:14;;;;;;;12.40;2.10;;;;;;;11.07;45.14;101598.95;107531;1251;97851;-62
2023/05/07 00:04:42;;;;;;;6.50;2.00;;;;;;;10.99;45.55;101602.45;107572;1254;97701;-61
2023/05/07 00:07:10;;;;;;;6.50;1.90;;;;;;;10.92;45.43;101605.08;107612;1250;111703;-59
2023/05/07 00:09:39;;;;;;;2.00;1.50;;;;;;;10.83;45.39;101602.39;107562;1254;109476;-60
2023/05/07 00:12:08;;;;;;;8.90;1.80;;;;;;;10.74;45.37;101602.51;107523;1251;108320;-60
2023/05/07 00:14:36;;;;;;;6.40;1.90;;;;;;;10.70;45.25;101601.62;107526;1251;97848;-59
2023/05/07 00:17:05;;;;;;;4.70;2.10;;;;;;;10.65;45.24;101600.13;107586;1254;97749;-61
2023/05/07 00:19:34;;;;;;;11.60;1.60;;;;;;;10.63;45.34;101598.72;107530;1251;110793;-59
2023/05/07 00:22:02;;;;;;;6.50;1.80;;;;;;;10.59;45.10;101598.42;107579;1254;109888;-61
2023/05/07 00:24:31;;;;;;;8.60;1.50;;;;;;;10.57;44.81;101595.51;107563;1251;108345;-61
2023/05/07 00:26:59;;;;;;;5.20;1.50;;;;;;;10.55;44.12;101597.09;107595;1251;98343;-60
2023/05/07 00:29:27;;;;;;;11.00;1.40;;;;;;;10.55;43.06;101594.39;107573;1254;97903;-60
2023/05/07 00:31:56;;;;;;;14.30;2.60;;;;;;;10.59;42.14;101591.30;107512;1250;111722;-61
2023/05/07 00:34:24;;;;;;;8.60;1.80;;;;;;;10.61;41.09;101589.64;107624;1251;110521;-61
2023/05/07 00:36:53;;;;;;;8.20;1.40;;;;;;;10.66;40.62;101587.55;107599;1251;107783;-60
2023/05/07 00:39:21;;;;;;;5.70;1.20;;;;;;;10.69;40.75;101584.27;107570;1251;97838;-60
2023/05/07 00:41:51;;;;;;;4.40;1.60;;;;;;;10.73;40.54;101588.96;107612;1251;97821;-60
2023/05/07 00:44:19;;;;;;;5.50;1.50;;;;;;;10.76;40.09;101588.02;107631;1250;110499;-60
2023/05/07 00:46:49;;;;;;;6.00;1.90;;;;;;;10.78;40.22;101590.52;107580;1251;110414;-61
2023/05/07 00:49:19;;;;;;;8.40;1.60;;;;;;;10.80;40.00;101589.73;107586;1251;107688;-60
2023/05/07 00:51:47;;;;;;;6.20;1.70;;;;;;;10.78;39.82;101589.27;107604;1251;97822;-60
2023/05/07 00:54:16;;;;;;;6.30;1.30;;;;;;;10.77;39.86;101593.36;107631;1251;97815;-61
2023/05/07 00:56:48;;;;;;;5.90;2.10;;;;;;;10.76;39.72;101600.05;107617;1251;110720;-60
2023/05/07 00:59:16;;;;;;;6.30;1.20;;;;;;;10.76;39.78;101600.54;107562;1251;109834;-60
2023/05/07 01:01:45;;;;;;;4.30;1.30;;;;;;;10.78;39.61;101605.48;107592;1251;109363;-62
2023/05/07 01:04:14;;;;;;;9.00;1.50;;;;;;;10.80;39.47;101609.27;107496;1254;97845;-60
2023/05/07 01:06:45;;;;;;;6.00;1.50;;;;;;;10.82;39.54;101605.36;107582;1255;98408;-58
2023/05/07 01:09:14;;;;;;;4.00;1.40;;;;;;;10.84;39.46;101606.05;107581;1256;112421;-59
2023/05/07 01:11:43;;;;;;;6.10;1.30;;;;;;;10.85;39.33;101603.84;107642;1251;110128;-60
2023/05/07 01:14:12;;;;;;;3.00;1.30;;;;;;;10.86;39.39;101601.45;107610;1253;107333;-60
2023/05/07 01:16:41;;;;;;;5.60;1.20;;;;;;;10.87;39.25;101598.52;107471;1253;97893;-61
2023/05/07 01:19:21;;;;;;;4.10;1.20;;;;;;;10.87;39.29;101597.74;107456;1253;97791;-60
2023/05/07 01:21:51;;;;;;;5.90;1.50;;;;;;;10.86;39.15;101596.10;107625;1254;112060;-62
2023/05/07 01:24:20;;;;;;;4.00;1.10;;;;;;;10.84;39.29;101593.73;107564;1256;109013;-60
2023/05/07 01:26:48;;;;;;;4.10;1.40;;;;;;;10.80;39.06;101588.09;107592;1252;108882;-59
2023/05/07 01:29:17;;;;;;;4.30;1.20;;;;;;;10.78;39.20;101585.88;107563;1251;97819;-60
2023/05/07 01:31:47;;;;;;;2.30;1.40;;;;;;;10.78;39.16;101588.24;107642;1256;97815;-59
2023/05/07 01:34:18;;;;;;;6.30;1.40;;;;;;;10.78;39.07;101583.92;107683;1251;111447;-60
2023/05/07 01:36:48;;;;;;;5.80;1.60;;;;;;;10.76;38.86;101580.99;107606;1256;108526;-61
2023/05/07 01:39:21;;;;;;;3.10;1.20;;;;;;;10.76;39.02;101579.09;107603;1251;108094;-59
2023/05/07 01:41:50;;;;;;;3.60;1.40;;;;;;;10.75;39.10;101580.37;107608;1253;97860;-59
2023/05/07 01:44:19;;;;;;;4.70;1.40;;;;;;;10.74;38.99;101580.67;107611;1250;98324;-59
2023/05/07 01:46:48;;;;;;;3.00;1.30;;;;;;;10.70;39.04;101583.45;107530;1251;111329;-60
2023/05/07 01:49:18;;;;;;;3.40;1.30;;;;;;;10.66;39.08;101583.39;107494;1257;109319;-61
2023/05/07 01:51:46;;;;;;;4.00;1.50;;;;;;;10.65;39.25;101581.50;107595;1256;106748;-60
2023/05/07 01:54:15;;;;;;;6.60;1.60;;;;;;;10.64;39.15;101580.10;107577;1251;97892;-59
2023/05/07 01:56:43;;;;;;;3.10;1.50;;;;;;;10.64;39.13;101580.25;107642;1251;99037;-61
2023/05/07 01:59:13;;;;;;;5.60;1.40;;;;;;;10.64;39.20;101580.27;107484;1251;112172;-62
2023/05/07 02:01:41;;;;;;;2.50;1.50;;;;;;;10.63;39.11;101577.30;107505;1256;109746;-60
2023/05/07 02:04:11;;;;;;;4.60;1.60;;;;;;;10.63;39.11;101576.03;107460;1253;108805;-60
2023/05/07 02:06:39;;;;;;;4.70;1.70;;;;;;;10.64;39.18;101577.99;107598;1251;97944;-59
2023/05/07 02:09:10;;;;;;;1.60;1.00;;;;;;;10.62;39.05;101575.79;107577;1251;98353;-60
2023/05/07 02:11:40;;;;;;;3.80;1.50;;;;;;;10.61;38.99;101578.20;107618;1251;111453;-60
2023/05/07 02:14:09;;;;;;;3.00;1.10;;;;;;;10.58;39.04;101575.73;107630;1251;110262;-59
2023/05/07 02:16:38;;;;;;;5.70;1.60;;;;;;;10.55;39.15;101575.81;107495;1251;107478;-59
2023/05/07 02:19:07;;;;;;;2.40;1.40;;;;;;;10.51;39.21;101572.70;107597;1251;97807;-60
2023/05/07 02:21:36;;;;;;;4.80;1.40;;;;;;;10.51;39.24;101565.91;107673;1251;97816;-59
2023/05/07 02:24:05;;;;;;;3.90;1.50;;;;;;;10.51;39.16;101559.22;107567;1251;111906;-58
2023/05/07 02:26:34;;;;;;;5.50;1.50;;;;;;;10.53;39.34;101560.20;107686;1251;110154;-60
2023/05/07 02:29:02;;;;;;;3.10;1.10;;;;;;;10.53;39.35;101562.16;107588;1251;108792;-59
2023/05/07 02:31:33;;;;;;;1.80;1.60;;;;;;;10.53;39.36;101560.70;107617;1254;97835;-60
2023/05/07 02:34:02;;;;;;;2.90;1.30;;;;;;;10.53;39.35;101562.14;107572;1253;97739;-60
2023/05/07 02:36:31;;;;;;;13.10;1.90;;;;;;;10.53;39.35;101559.98;107636;1251;111898;-60
2023/05/07 02:39:09;;;;;;;5.80;1.70;;;;;;;10.50;39.56;101553.93;107518;1251;109774;-59
2023/05/07 02:41:37;;;;;;;4.00;1.90;;;;;;;10.49;39.58;101551.85;107546;1251;109824;-60
2023/05/07 02:44:06;;;;;;;5.20;1.30;;;;;;;10.52;39.55;101549.16;107540;1254;98388;-59
2023/05/07 02:46:34;;;;;;;6.50;1.50;;;;;;;10.53;39.66;101545.42;107598;1251;97669;-59
2023/05/07 02:49:07;;;;;;;7.80;1.90;;;;;;;10.55;39.83;101547.69;107558;1251;112651;-61
2023/05/07 02:51:36;;;;;;;4.80;1.90;;;;;;;10.53;39.67;101548.83;107645;1256;109459;-61
2023/05/07 02:54:08;;;;;;;3.70;1.50;;;;;;;10.51;39.85;101549.36;107506;1256;108624;-58
2023/05/07 02:56:36;;;;;;;6.00;1.30;;;;;;;10.48;39.99;101547.98;107640;1252;97842;-60
2023/05/07 02:59:05;;;;;;;3.50;1.60;;;;;;;10.48;40.05;101548.33;107458;1253;98360;-60
2023/05/07 03:01:37;;;;;;;3.90;1.50;;;;;;;10.51;40.22;101550.61;107583;1253;111388;-62
2023/05/07 03:04:08;;;;;;;9.60;1.30;;;;;;;10.55;40.08;101552.80;107557;1255;109700;-59
2023/05/07 03:06:36;;;;;;;4.80;1.20;;;;;;;10.60;40.12;101553.20;107591;1256;107696;-59
2023/05/07 03:09:04;;;;;;;2.50;1.40;;;;;;;10.62;40.14;101552.45;107435;1251;97899;-59
2023/05/07 03:11:33;;;;;;;5.00;1.80;;;;;;;10.67;40.03;101552.30;107630;1251;98356;-58
2023/05/07 03:14:01;;;;;;;5.70;2.80;;;;;;;10.72;40.13;101550.86;107588;1251;111729;-58
2023/05/07 03:16:31;;;;;;;2.90;1.80;;;;;;;10.75;40.05;101553.50;107621;1253;109661;-59
2023/05/07 03:18:59;;;;;;;4.20;1.60;;;;;;;10.79;40.08;101551.52;107607;1251;108577;-60
2023/05/07 03:21:30;;;;;;;5.00;1.50;;;;;;;10.84;40.02;101545.81;107625;1251;97825;-61
2023/05/07 03:23:59;;;;;;;35.60;2.90;;;;;;;10.85;39.87;101543.96;107674;1251;97857;-59
2023/05/07 03:26:27;;;;;;;13.40;1.50;;;;;;;10.85;40.12;101543.53;107668;1251;112490;-59
2023/05/07 03:28:56;;;;;;;7.40;1.50;;;;;;;10.84;40.22;101539.64;107507;1254;109985;-60
2023/05/07 03:31:25;;;;;;;12.70;1.90;;;;;;;10.86;40.02;101537.57;107528;1254;107779;-61
2023/05/07 03:33:56;;;;;;;7.10;1.30;;;;;;;10.88;40.38;101541.71;107560;1253;97820;-59
2023/05/07 03:36:27;;;;;;;7.30;1.70;;;;;;;10.90;40.28;101539.02;107668;1254;97844;-60
2023/05/07 03:38:56;;;;;;;3.70;1.70;;;;;;;10.92;40.40;101541.42;107572;1251;112369;-60
2023/05/07 03:41:27;;;;;;;8.00;1.80;;;;;;;10.90;40.33;101537.94;107634;1251;109562;-59
2023/05/07 03:43:55;;;;;;;7.10;2.50;;;;;;;10.88;40.28;101539.02;107564;1251;108651;-60
2023/05/07 03:46:25;;;;;;;4.80;1.70;;;;;;;10.86;40.23;101540.95;107583;1250;97832;-60
2023/05/07 03:48:55;;;;;;;7.60;1.50;;;;;;;10.87;40.33;101540.73;107479;1254;97846;-61
2023/05/07 03:51:25;;;;;;;4.20;1.80;;;;;;;10.87;40.29;101538.19;107603;1251;111777;-60
2023/05/07 03:53:53;;;;;;;7.30;1.80;;;;;;;10.90;40.30;101543.34;107562;1252;109987;-59
2023/05/07 03:56:26;;;;;;;3.80;1.40;;;;;;;10.94;40.31;101543.77;107603;1251;107949;-61
2023/05/07 03:58:56;;;;;;;4.20;1.40;;;;;;;10.98;40.31;101545.83;107569;1251;97908;-62
2023/05/07 04:01:24;;;;;;;2.70;1.50;;;;;;;10.97;40.14;101540.87;107611;1251;97847;-59
2023/05/07 04:03:53;;;;;;;6.00;1.70;;;;;;;10.98;40.35;101535.23;107613;1250;111398;-60
2023/05/07 04:06:22;;;;;;;4.70;1.60;;;;;;;10.97;40.34;101537.76;107637;1251;108978;-59
2023/05/07 04:08:50;;;;;;;5.90;1.80;;;;;;;10.95;40.47;101539.33;107458;1251;108489;-59
2023/05/07 04:11:18;;;;;;;7.40;1.60;;;;;;;10.97;40.44;101542.60;107493;1253;97866;-59
2023/05/07 04:13:47;;;;;;;3.60;1.70;;;;;;;11.04;40.59;101545.10;107574;1253;98332;-59
2023/05/07 04:16:17;;;;;;;7.80;1.60;;;;;;;11.09;40.67;101542.03;107557;1254;112126;-59
2023/05/07 04:18:45;;;;;;;10.70;2.40;;;;;;;11.12;40.56;101543.27;107578;1252;109681;-61
2023/05/07 04:21:18;;;;;;;2.80;1.90;;;;;;;11.16;40.42;101550.47;107564;1256;108288;-60
2023/05/07 04:23:47;;;;;;;4.70;2.30;;;;;;;11.15;40.20;101551.10;107585;1251;98481;-59
2023/05/07 04:26:16;;;;;;;5.00;1.60;;;;;;;11.11;40.40;101553.40;107562;1251;98512;-58
2023/05/07 04:28:45;;;;;;;5.90;1.50;;;;;;;11.08;40.49;101551.82;107616;1251;110342;-60
2023/05/07 04:31:15;;;;;;;8.50;1.90;;;;;;;11.06;40.59;101548.34;107631;1253;109123;-59
2023/05/07 04:33:44;;;;;;;6.70;1.70;;;;;;;11.05;40.70;101551.87;107495;1257;107329;-59
2023/05/07 04:36:14;;;;;;;2.20;1.50;;;;;;;11.05;40.77;101557.81;107587;1250;97924;-59
2023/05/07 04:38:53;;;;;;;23.80;2.10;;;;;;;11.09;40.60;101561.05;107619;1251;98694;-59
2023/05/07 04:41:21;;;;;;;24.30;9.40;;;;;;;11.15;40.64;101561.14;107597;1254;111423;-59
2023/05/07 04:43:51;;;;;;;11.00;1.60;;;;;;;11.22;40.46;101558.43;107570;1251;110040;-59
2023/05/07 04:46:21;;;;;;;4.50;1.90;;;;;;;11.22;40.34;101551.77;107603;1251;108095;-59
2023/05/07 04:48:50;;;;;;;6.00;1.60;;;;;;;11.22;40.17;101551.84;107597;1250;97822;-61
2023/05/07 04:51:18;;;;;;;7.90;1.20;;;;;;;11.21;40.08;101550.95;107594;1251;97809;-59
2023/05/07 04:53:47;;;;;;;2.90;1.90;;;;;;;11.21;40.25;101547.58;107591;1251;111802;-60
2023/05/07 04:56:16;;;;;;;6.40;2.20;;;;;;;11.22;40.33;101543.36;107560;1254;109733;-59
2023/05/07 04:58:45;;;;;;;4.50;1.90;;;;;;;11.24;40.58;101541.44;107552;1252;108905;-60
2023/05/07 05:01:15;;;;;;;5.90;1.60;;;;;;;11.25;40.70;101542.02;107597;1254;97829;-60
2023/05/07 05:03:44;;;;;;;4.00;2.30;;;;;;;11.27;40.73;101539.77;107554;1251;98446;-60
2023/05/07 05:06:13;;;;;;;13.90;1.90;;;;;;;11.28;40.76;101539.82;107647;1251;110411;-59
2023/05/07 05:08:41;;;;;;;7.20;1.90;;;;;;;11.32;40.89;101543.17;107587;1251;110311;-59
2023/05/07 05:11:10;;;;;;;9.00;1.90;;;;;;;11.34;40.71;101541.88;107639;1254;107156;-60
2023/05/07 05:13:38;;;;;;;8.20;1.80;;;;;;;11.36;40.52;101544.27;107574;1253;97742;-60
2023/05/07 05:16:13;;;;;;;5.90;1.80;;;;;;;11.44;40.66;101546.67;107583;1251;98521;-58
2023/05/07 05:18:42;;;;;;;8.20;1.60;;;;;;;11.52;40.65;101544.20;107627;1251;111316;-60
2023/05/07 05:21:12;;;;;;;4.20;1.60;;;;;;;11.63;40.70;101549.27;107616;1254;111186;-59
2023/05/07 05:23:41;;;;;;;2.20;1.30;;;;;;;11.76;40.85;101554.58;107533;1251;108185;-60
2023/05/07 05:26:10;;;;;;;7.60;1.40;;;;;;;11.86;40.91;101558.20;107620;1251;97812;-60
2023/05/07 05:28:38;;;;;;;7.20;1.80;;;;;;;11.95;40.62;101560.91;107599;1251;97906;-59
2023/05/07 05:31:06;;;;;;;8.40;1.70;;;;;;;12.02;40.00;101562.34;107672;1251;111175;-60
2023/05/07 05:33:36;;;;;;;7.50;1.70;;;;;;;12.05;39.84;101559.62;107473;1254;108957;-61
2023/05/07 05:36:08;;;;;;;2.10;1.30;;;;;;;12.06;39.80;101560.96;107618;1251;108450;-60
2023/05/07 05:38:37;;;;;;;9.00;1.70;;;;;;;12.10;39.82;101564.02;107563;1251;97848;-60
2023/05/07 05:41:06;;;;;;;4.70;2.00;;;;;;;12.15;39.84;101560.59;107566;1254;97813;-60
2023/05/07 05:43:35;;;;;;;3.40;1.70;;;;;;;12.14;39.87;101560.63;107606;1254;110824;-61
2023/05/07 05:46:04;;;;;;;3.30;1.70;;;;;;;12.17;40.01;101558.80;107609;1254;107668;-59
2023/05/07 05:48:33;;;;;;;9.90;2.20;;;;;;;12.19;39.97;101551.95;107538;1253;107686;-59
2023/05/07 05:51:02;;;;;;;2.50;1.60;;;;;;;12.22;40.04;101547.74;107559;1256;97912;-61
2023/05/07 05:53:30;;;;;;;8.30;2.20;;;;;;;12.27;40.07;101546.65;107609;1251;97844;-59
2023/05/07 05:55:59;;;;;;;7.80;1.90;;;;;;;12.28;40.25;101551.02;107598;1251;110262;-63
2023/05/07 05:58:28;;;;;;;8.00;2.10;;;;;;;12.30;40.27;101549.63;107588;1254;109965;-62
2023/05/07 06:01:02;;;;;;;8.20;1.60;;;;;;;12.36;40.24;101549.84;107584;1251;108102;-61
2023/05/07 06:03:32;;;;;;;8.50;1.70;;;;;;;12.45;39.95;101554.48;107630;1251;97938;-59
2023/05/07 06:06:03;;;;;;;4.70;2.00;;;;;;;12.55;39.85;101554.73;107592;1253;97841;-61
2023/05/07 06:08:32;;;;;;;5.70;1.90;;;;;;;12.66;39.71;101558.27;107596;1256;111688;-63
2023/05/07 06:11:02;;;;;;;7.10;1.70;;;;;;;12.76;40.00;101560.54;107582;1254;109513;-59
2023/05/07 06:13:34;;;;;;;3.40;1.70;;;;;;;12.86;39.98;101557.64;107506;1250;108700;-60
2023/05/07 06:16:04;;;;;;;5.10;1.60;;;;;;;13.00;39.68;101561.71;107601;1255;97902;-61
2023/05/07 06:18:32;;;;;;;5.00;1.70;;;;;;;13.08;39.50;101566.80;107604;1251;97936;-61
2023/05/07 06:21:01;;;;;;;5.00;1.60;;;;;;;13.14;39.54;101566.42;107576;1251;111417;-60
2023/05/07 06:23:31;;;;;;;6.30;2.10;;;;;;;13.20;39.60;101564.73;107615;1251;109180;-60
2023/05/07 06:26:00;;;;;;;6.00;1.80;;;;;;;13.26;39.50;101565.75;107628;1252;108860;-64
2023/05/07 06:28:36;;;;;;;8.30;1.80;;;;;;;13.27;39.33;101569.27;107551;1251;97829;-62
2023/05/07 06:31:14;;;;;;;7.20;1.80;;;;;;;13.28;39.60;101570.69;107580;1251;97820;-61
2023/05/07 06:33:47;;;;;;;6.80;2.10;;;;;;;13.33;39.60;101575.80;107571;1253;110735;-61
2023/05/07 06:36:24;;;;;;;12.20;2.10;;;;;;;13.38;39.49;101577.17;107519;1254;108315;-61
2023/05/07 06:38:57;;;;;;;9.30;2.00;;;;;;;13.42;39.46;101577.73;107529;1251;109524;-62
2023/05/07 06:41:32;;;;;;;3.30;1.90;;;;;;;13.51;39.34;101573.90;107579;1255;97819;-63
2023/05/07 06:44:15;;;;;;;6.10;2.00;;;;;;;13.60;39.26;101571.50;107611;1251;97806;-58
2023/05/07 06:46:48;;;;;;;7.20;2.30;;;;;;;13.70;39.33;101570.27;107594;1251;111321;-61
2023/05/07 06:49:18;;;;;;;10.50;2.30;;;;;;;13.83;39.35;101574.46;107622;1251;109060;-62
2023/05/07 06:51:49;;;;;;;12.90;2.90;;;;;;;14.00;39.19;101576.79;107496;1253;108880;-60
2023/05/07 06:54:21;;;;;;;25.30;2.80;;;;;;;14.12;38.94;101571.51;107650;1251;97688;-60
2023/05/07 06:56:52;;;;;;;6.70;2.00;;;;;;;14.27;38.57;101567.42;107598;1254;97879;-61
2023/05/07 06:59:21;;;;;;;8.70;2.80;;;;;;;14.41;38.32;101565.13;107461;1254;111790;-61
2023/05/07 07:01:49;;;;;;;9.40;2.50;;;;;;;14.56;38.33;101566.61;107662;1254;108726;-60
2023/05/07 07:04:19;;;;;;;10.20;2.30;;;;;;;14.72;38.06;101568.98;107555;1253;107745;-62
2023/05/07 07:06:53;;;;;;;3.60;2.00;;;;;;;14.84;37.95;101572.14;107422;1258;98073;-61
2023/05/07 07:09:22;;;;;;;6.40;2.20;;;;;;;14.96;37.74;101573.73;107532;1251;98334;-61
2023/05/07 07:11:54;;;;;;;9.20;2.30;;;;;;;15.04;37.64;101573.88;107583;1254;110912;-65
2023/05/07 07:14:36;;;;;;;25.60;3.00;;;;;;;15.05;37.67;101568.41;107642;1254;109692;-59
2023/05/07 07:17:05;;;;;;;16.90;3.10;;;;;;;14.97;37.63;101576.21;107461;1254;108342;-60
2023/05/07 07:19:35;;;;;;;8.50;2.40;;;;;;;14.83;37.49;101573.00;107566;1251;97749;-61
2023/05/07 07:22:04;;;;;;;4.70;2.00;;;;;;;14.67;37.64;101571.77;107636;1251;97924;-59
2023/05/07 07:24:32;;;;;;;13.70;3.60;;;;;;;14.52;37.94;101572.54;107611;1254;112283;-58
2023/05/07 07:27:03;;;;;;;17.70;2.90;;;;;;;14.42;37.81;101573.50;107647;1251;109483;-61
2023/05/07 07:29:33;;;;;;;7.10;2.40;;;;;;;14.32;38.14;101574.77;107531;1251;109609;-63
2023/05/07 07:32:02;;;;;;;12.20;3.00;;;;;;;14.37;38.29;101565.48;107570;1251;97984;-60
2023/05/07 07:34:31;;;;;;;18.40;3.10;;;;;;;14.47;38.39;101559.19;107589;1254;98350;-59
2023/05/07 07:37:05;;;;;;;23.40;2.70;;;;;;;14.54;38.18;101558.11;107578;1254;110978;-58
2023/05/07 07:39:34;;;;;;;13.20;3.10;;;;;;;14.63;38.20;101557.70;107596;1252;109291;-60
2023/05/07 07:42:03;;;;;;;8.20;1.90;;;;;;;14.67;37.91;101559.08;107535;1256;106797;-59
2023/05/07 07:44:32;;;;;;;15.00;2.20;;;;;;;14.79;37.38;101557.62;107640;1252;97895;-59
2023/05/07 07:47:04;;;;;;;4.40;2.10;;;;;;;14.91;37.65;101552.23;107583;1254;97730;-60
2023/05/07 07:49:34;;;;;;;9.60;2.70;;;;;;;15.00;37.76;101550.05;107660;1255;111459;-59
2023/05/07 07:52:05;;;;;;;10.50;2.80;;;;;;;15.07;37.34;101553.05;107542;1256;109548;-60
2023/05/07 07:54:35;;;;;;;16.40;2.80;;;;;;;15.17;37.71;101555.34;107593;1254;108097;-59
2023/05/07 07:57:04;;;;;;;9.40;2.80;;;;;;;15.32;37.51;101553.89;107501;1254;97835;-61
2023/05/07 07:59:35;;;;;;;9.30;2.40;;;;;;;15.47;37.24;101553.54;107029;1253;704641;-60
2023/05/07 08:02:05;;;;;;;8.80;2.20;;;;;;;15.63;37.26;101545.88;107596;1253;111776;-59
2023/05/07 08:04:35;;;;;;;3.90;2.30;;;;;;;15.76;36.72;101548.04;107564;1254;109820;-61
2023/05/07 08:07:05;;;;;;;10.20;2.70;;;;;;;15.92;36.61;101554.77;107563;1254;108739;-61
2023/05/07 08:09:37;;;;;;;12.30;2.10;;;;;;;16.10;36.12;101554.08;107562;1253;97819;-60
2023/05/07 08:12:06;;;;;;;5.90;2.20;;;;;;;16.30;35.89;101550.34;107606;1254;98350;-61
2023/05/07 08:14:36;;;;;;;10.20;2.40;;;;;;;16.49;35.31;101546.20;107600;1254;111247;-62
2023/05/07 08:17:05;;;;;;;9.10;2.00;;;;;;;16.68;35.31;101539.23;107597;1255;107891;-60
2023/05/07 08:19:34;;;;;;;7.80;1.80;;;;;;;16.98;34.74;101537.86;107611;1252;108626;-60
2023/05/07 08:22:05;;;;;;;5.90;2.00;;;;;;;17.27;34.14;101532.44;107642;1251;97859;-61
2023/05/07 08:24:34;;;;;;;6.60;1.50;;;;;;;17.47;33.65;101532.48;107633;1251;97697;-60
2023/05/07 08:27:03;;;;;;;9.30;1.90;;;;;;;17.61;33.37;101532.86;107593;1251;111694;-60
2023/05/07 08:29:31;;;;;;;18.20;1.80;;;;;;;17.70;32.98;101528.67;107506;1254;109970;-59
2023/05/07 08:32:00;;;;;;;9.10;1.90;;;;;;;17.77;33.05;101531.52;107620;1251;108679;-62
2023/05/07 08:34:29;;;;;;;11.80;1.90;;;;;;;17.92;32.79;101528.84;107577;1250;97823;-60
2023/05/07 08:36:58;;;;;;;5.10;2.10;;;;;;;18.01;32.86;101527.17;107584;1252;97696;-61
2023/05/07 08:39:27;;;;;;;8.10;1.90;;;;;;;18.06;32.79;101525.41;107581;1254;112199;-60
2023/05/07 08:41:57;;;;;;;11.40;2.70;;;;;;;18.03;32.81;101522.84;107581;1254;109061;-61
2023/05/07 08:44:29;;;;;;;10.00;2.20;;;;;;;18.00;32.96;101523.16;107536;1254;106139;-60
2023/05/07 08:47:00;;;;;;;4.90;2.00;;;;;;;17.88;32.89;101519.52;107554;1253;97803;-61
2023/05/07 08:49:30;;;;;;;5.80;2.20;;;;;;;17.80;32.99;101522.91;107562;1253;98462;-60
2023/05/07 08:52:00;;;;;;;10.50;1.80;;;;;;;17.77;33.43;101519.02;107575;1251;112370;-60
2023/05/07 08:54:29;;;;;;;5.60;1.80;;;;;;;17.80;33.54;101514.99;107651;1251;108342;-59
2023/05/07 08:56:57;;;;;;;9.00;1.90;;;;;;;17.84;33.65;101508.67;107589;1256;109018;-59
2023/05/07 08:59:27;;;;;;;8.50;2.20;;;;;;;17.81;33.74;101503.89;107555;1251;97837;-61
2023/05/07 09:01:55;;;;;;;9.50;2.10;;;;;;;17.68;34.08;101502.17;107539;1254;97832;-59
2023/05/07 09:04:24;;;;;;;10.90;2.20;;;;;;;17.51;34.31;101502.16;107619;1256;112124;-60
2023/05/07 09:06:53;;;;;;;8.20;1.90;;;;;;;17.45;34.32;101502.77;107621;1254;109957;-62
2023/05/07 09:09:22;;;;;;;7.20;1.90;;;;;;;17.40;34.31;101499.25;107638;1254;108778;-60
2023/05/07 09:11:59;;;;;;;13.40;2.40;;;;;;;17.27;34.39;101498.77;107549;1254;98292;-62
2023/05/07 09:14:30;;;;;;;3.80;1.70;;;;;;;17.15;34.33;101501.80;107561;1253;97726;-62
2023/05/07 09:16:58;;;;;;;5.40;1.80;;;;;;;17.05;34.40;101498.54;107594;1254;112436;-60
2023/05/07 09:19:27;;;;;;;10.90;2.20;;;;;;;16.91;34.59;101501.56;107569;1254;108348;-61
2023/05/07 09:22:02;;;;;;;11.30;2.30;;;;;;;16.77;34.70;101501.35;107580;1251;108051;-62
2023/05/07 09:24:37;;;;;;;8.20;1.80;;;;;;;16.67;34.68;101504.04;107528;1253;97963;-61
2023/05/07 09:27:09;;;;;;;10.10;2.00;;;;;;;16.61;34.66;101508.30;107605;1250;98320;-61
2023/05/07 09:29:38;;;;;;;5.40;1.70;;;;;;;16.52;34.70;101508.95;107588;1251;112163;-62
2023/05/07 09:32:21;;;;;;;8.30;2.00;;;;;;;16.42;34.46;101509.65;107634;1251;110256;-63
2023/05/07 09:34:58;;;;;;;7.60;2.50;;;;;;;16.25;34.85;101510.96;107524;1254;107962;-58
2023/05/07 09:37:27;;;;;;;16.30;2.40;;;;;;;16.18;35.12;101514.05;107601;1255;97701;-60
2023/05/07 09:39:56;;;;;;;9.00;2.90;;;;;;;16.15;35.37;101515.10;107637;1254;97903;-60
2023/05/07 09:42:26;;;;;;;4.00;1.80;;;;;;;16.11;35.58;101520.56;107587;1253;112545;-61
2023/05/07 09:44:59;;;;;;;11.40;2.10;;;;;;;16.05;36.22;101521.48;107652;1251;110303;-60
2023/05/07 09:47:33;;;;;;;8.10;1.70;;;;;;;15.99;36.11;101522.67;107620;1254;107713;-61
2023/05/07 09:50:08;;;;;;;14.00;2.00;;;;;;;15.92;36.16;101521.66;107533;1254;97962;-60
2023/05/07 09:52:40;;;;;;;8.00;2.00;;;;;;;15.91;36.30;101516.32;107546;1254;97694;-62
2023/05/07 09:55:10;;;;;;;4.00;2.40;;;;;;;15.93;36.71;101516.52;107575;1254;111911;-62
2023/05/07 09:57:41;;;;;;;13.20;1.90;;;;;;;15.93;36.71;101514.71;107610;1251;109225;-60
2023/05/07 10:00:10;;;;;;;6.50;1.60;;;;;;;15.93;36.59;101520.86;107604;1251;107877;-60
2023/05/07 10:02:51;;;;;;;9.90;2.10;;;;;;;15.94;36.15;101520.02;107526;1255;97812;-61
2023/05/07 10:05:25;;;;;;;5.40;2.50;;;;;;;15.98;36.15;101520.06;107660;1254;98372;-61
2023/05/07 10:07:57;;;;;;;8.70;1.80;;;;;;;16.04;36.54;101514.92;107591;1251;110450;-60
2023/05/07 10:10:27;;;;;;;11.20;2.00;;;;;;;16.12;36.63;101509.95;107586;1251;110551;-61
2023/05/07 10:12:57;;;;;;;9.90;1.70;;;;;;;16.20;36.44;101507.66;107581;1254;108284;-60
2023/05/07 10:15:31;;;;;;;7.70;2.00;;;;;;;16.30;36.54;101500.21;107505;1254;98281;-63
2023/05/07 10:18:00;;;;;;;5.20;1.80;;;;;;;16.42;36.58;101501.33;107504;1254;97832;-63
2023/05/07 10:20:31;;;;;;;4.80;2.00;;;;;;;16.50;36.60;101504.00;107485;1251;111954;-62
2023/05/07 10:23:04;;;;;;;9.30;2.30;;;;;;;16.54;36.78;101502.21;107557;1251;109737;-62
2023/05/07 10:25:37;;;;;;;7.00;2.20;;;;;;;16.56;36.77;101497.68;107564;1253;108118;-60
2023/05/07 10:28:16;;;;;;;10.00;1.90;;;;;;;16.57;36.60;101496.56;107573;1251;97897;-60
2023/05/07 10:31:15;;;;;;;7.90;2.30;;;;;;;16.58;36.68;101487.72;107587;1251;97833;-60
2023/05/07 10:33:48;;;;;;;12.00;2.10;;;;;;;16.56;36.84;101484.13;107582;1251;111373;-59
2023/05/07 10:36:19;;;;;;;6.60;2.30;;;;;;;16.55;37.06;101481.57;107655;1251;111093;-60
2023/05/07 10:38:48;;;;;;;19.10;3.10;;;;;;;16.57;37.18;101480.02;107519;1251;108280;-61
2023/05/07 10:41:18;;;;;;;9.90;3.20;;;;;;;16.67;37.45;101484.64;107587;1255;97800;-61
2023/05/07 10:43:47;;;;;;;11.50;2.90;;;;;;;16.77;37.56;101488.55;107572;1251;97996;-60
2023/05/07 10:46:22;;;;;;;12.70;3.10;;;;;;;16.91;36.68;101489.27;107609;1251;111937;-60
2023/05/07 10:49:00;;;;;;;12.20;4.00;;;;;;;17.02;36.32;101486.84;107521;1254;108719;-61
2023/05/07 10:51:33;;;;;;;14.20;4.60;;;;;;;17.16;36.04;101489.19;107596;1256;107110;-61
2023/05/07 10:54:10;;;;;;;10.10;3.70;;;;;;;17.25;35.73;101487.38;107574;1254;97917;-60
2023/05/07 10:56:47;;;;;;;11.60;3.50;;;;;;;17.34;35.98;101489.47;107586;1253;97814;-62
2023/05/07 10:59:30;;;;;;;11.40;3.40;;;;;;;17.50;35.90;101483.11;107536;1255;112739;-60
2023/05/07 11:02:05;;;;;;;15.30;3.10;;;;;;;17.61;35.78;101484.77;107636;1256;110298;-61
2023/05/07 11:04:41;;;;;;;12.60;2.80;;;;;;;17.73;35.52;101484.44;107540;1251;108642;-61
2023/05/07 11:07:27;;;;;;;7.00;2.90;;;;;;;17.79;35.10;101486.33;107537;1251;97812;-61
2023/05/07 11:10:10;;;;;;;10.10;3.60;;;;;;;17.81;35.17;101487.52;107591;1250;97918;-60
2023/05/07 11:12:53;;;;;;;14.90;3.00;;;;;;;17.85;35.35;101488.61;107496;1251;111717;-61
2023/05/07 11:15:48;;;;;;;12.00;2.70;;;;;;;17.89;35.12;101486.89;107570;1254;109773;-61
2023/05/07 11:18:22;;;;;;;17.30;2.80;;;;;;;18.03;35.03;101484.33;107558;1251;107879;-61
2023/05/07 11:20:57;;;;;;;8.90;2.30;;;;;;;18.10;34.71;101481.08;107540;1254;97830;-60
2023/05/07 11:23:56;;;;;;;6.50;2.20;;;;;;;18.14;34.57;101482.23;107055;1257;98005;-60
2023/05/07 11:26:40;;;;;;;6.20;2.30;;;;;;;18.20;34.55;101483.05;107592;1251;110923;-60